Time;durP1;ratioP1;P1;durP2;ratioP2;P2;SDS_P1;SDS_P2;PMS_P1;PMS_P2;Temp;Humidity;BMP_temperature;BMP_pressure;BME280_temperature;BME280_humidity;BME280_pressure;Samples;Min_cycle;Max_cycle;Signal;HPM_P1;HPM_P2
2022/11/26 00:02:23;;;;;;;;;;;6.70;99.90;;;;;;5055048;28;20056;-69
2022/11/26 00:04:49;;;;;;;;;;;6.60;99.90;;;;;;5059079;28;19929;-70
2022/11/26 00:07:20;;;;;;;13.50;4.45;;;6.60;99.90;;;;;;5051596;28;19921;-70
2022/11/26 00:09:45;;;;;;;22.92;5.80;;;6.60;99.90;;;;;;5055678;28;20171;-68
2022/11/26 00:12:19;;;;;;;;;;;6.60;99.90;;;;;;5056164;28;20092;-71
2022/11/26 00:14:48;;;;;;;12.25;4.03;;;6.60;99.90;;;;;;5057341;28;20308;-68
2022/11/26 00:17:15;;;;;;;15.30;4.03;;;6.50;99.90;;;;;;5051089;28;20563;-69
2022/11/26 00:19:42;;;;;;;13.02;3.50;;;6.50;99.90;;;;;;5047346;28;20037;-67
2022/11/26 00:22:28;;;;;;;13.05;3.85;;;6.60;99.90;;;;;;5041989;28;20499;-68
2022/11/26 00:24:54;;;;;;;12.10;3.72;;;6.60;99.90;;;;;;5045291;28;20047;-68
2022/11/26 00:27:23;;;;;;;12.20;3.72;;;6.60;99.90;;;;;;5040781;28;20045;-68
2022/11/26 00:29:49;;;;;;;8.85;3.80;;;6.60;99.90;;;;;;5026635;28;20494;-68
2022/11/26 00:32:25;;;;;;;16.33;5.22;;;6.60;99.90;;;;;;5042490;28;20035;-68
2022/11/26 00:34:52;;;;;;;15.57;3.97;;;6.60;99.90;;;;;;5043964;28;20084;-69
2022/11/26 00:37:34;;;;;;;26.20;5.22;;;6.60;99.90;;;;;;5040517;28;20612;-67
2022/11/26 00:40:01;;;;;;;18.10;5.40;;;6.50;99.90;;;;;;5047168;28;20040;-69
2022/11/26 00:42:26;;;;;;;12.52;4.03;;;6.50;99.90;;;;;;5045221;28;20094;-68
2022/11/26 00:44:52;;;;;;;13.57;4.30;;;6.60;99.90;;;;;;5048124;28;20037;-68
2022/11/26 00:47:17;;;;;;;;;;;6.50;99.90;;;;;;5043206;28;20405;-68
2022/11/26 00:49:43;;;;;;;18.58;4.68;;;6.50;99.90;;;;;;5047105;28;20577;-69
2022/11/26 00:52:23;;;;;;;15.77;4.82;;;6.60;99.90;;;;;;5041599;28;20396;-68
2022/11/26 00:54:48;;;;;;;15.30;4.00;;;6.60;99.90;;;;;;5043427;28;20047;-68
2022/11/26 00:57:14;;;;;;;13.48;3.75;;;6.60;99.90;;;;;;5042076;28;20036;-68
2022/11/26 00:59:40;;;;;;;;;;;6.60;99.90;;;;;;5047622;28;20710;-69
2022/11/26 01:02:05;;;;;;;11.00;4.00;;;6.60;99.90;;;;;;5036650;28;19917;-68
2022/11/26 01:04:32;;;;;;;14.32;4.78;;;6.60;99.90;;;;;;5044412;28;20095;-68
2022/11/26 01:06:57;;;;;;;16.27;4.28;;;6.60;99.90;;;;;;5040216;28;20518;-68
2022/11/26 01:09:23;;;;;;;;;;;6.60;99.90;;;;;;5046504;28;20059;-68
2022/11/26 01:11:49;;;;;;;13.57;4.30;;;6.60;99.90;;;;;;5040665;28;19917;-68
2022/11/26 01:14:17;;;;;;;12.60;3.60;;;6.60;99.90;;;;;;5046956;28;20029;-67
2022/11/26 01:16:44;;;;;;;13.00;4.00;;;6.50;99.90;;;;;;5044481;28;20102;-69
2022/11/26 01:19:12;;;;;;;9.95;3.55;;;6.40;99.90;;;;;;5047233;28;20094;-68
2022/11/26 01:21:38;;;;;;;20.75;4.00;;;6.40;99.90;;;;;;5040461;28;20408;-68
2022/11/26 01:24:04;;;;;;;20.88;4.47;;;6.40;99.90;;;;;;5045275;28;20404;-68
2022/11/26 01:26:37;;;;;;;19.23;4.55;;;6.40;99.90;;;;;;5042745;28;20041;-68
2022/11/26 01:29:03;;;;;;;13.30;4.00;;;6.40;99.90;;;;;;5044857;28;20064;-68
2022/11/26 01:31:29;;;;;;;;;;;6.50;99.90;;;;;;5042665;28;20461;-68
2022/11/26 01:33:55;;;;;;;14.55;4.03;;;6.50;99.90;;;;;;5040767;28;20375;-67
2022/11/26 01:36:33;;;;;;;12.68;3.30;;;6.50;99.90;;;;;;5039356;28;20045;-68
2022/11/26 01:39:20;;;;;;;14.15;3.90;;;6.40;99.90;;;;;;5043133;28;20049;-68
2022/11/26 01:41:46;;;;;;;18.95;4.55;;;6.40;99.90;;;;;;5036993;28;20061;-68
2022/11/26 01:44:21;;;;;;;11.93;3.72;;;6.30;99.90;;;;;;5045297;28;20032;-68
2022/11/26 01:46:48;;;;;;;12.32;3.58;;;6.30;99.90;;;;;;5040825;28;20049;-68
2022/11/26 01:49:21;;;;;;;16.45;3.90;;;6.20;99.90;;;;;;5045536;28;20041;-68
2022/11/26 01:51:57;;;;;;;12.18;4.05;;;6.10;99.90;;;;;;5043596;28;20064;-67
2022/11/26 01:54:23;;;;;;;;;;;6.00;99.90;;;;;;5045582;28;20496;-68
2022/11/26 01:56:57;;;;;;;16.27;3.87;;;6.00;99.90;;;;;;5038734;28;20016;-68
2022/11/26 01:59:28;;;;;;;12.77;3.58;;;6.00;99.90;;;;;;5044377;28;20076;-69
2022/11/26 02:01:57;;;;;;;19.83;4.38;;;5.90;99.90;;;;;;5037789;28;20563;-68
2022/11/26 02:04:26;;;;;;;11.52;3.47;;;5.80;99.90;;;;;;5043679;28;20044;-67
2022/11/26 02:06:54;;;;;;;14.77;4.22;;;5.80;99.90;;;;;;5038871;28;20140;-69
2022/11/26 02:09:21;;;;;;;23.65;4.20;;;5.80;99.90;;;;;;5041673;28;20064;-69
2022/11/26 02:11:47;;;;;;;23.08;3.83;;;5.70;99.90;;;;;;5040913;28;20385;-68
2022/11/26 02:14:20;;;;;;;15.55;3.78;;;5.70;99.90;;;;;;5044318;28;20040;-67
2022/11/26 02:16:46;;;;;;;23.75;3.92;;;5.70;99.90;;;;;;5037947;28;20130;-68
2022/11/26 02:19:49;;;;;;;17.95;3.60;;;5.80;99.90;;;;;;5044724;28;20476;-70
2022/11/26 02:22:49;;;;;;;14.95;3.72;;;5.80;99.90;;;;;;5035190;28;20847;-68
2022/11/26 02:25:17;;;;;;;14.68;3.88;;;5.70;99.90;;;;;;5036807;28;20059;-68
2022/11/26 02:28:04;;;;;;;17.77;4.95;;;5.70;99.90;;;;;;5039905;28;20572;-69
2022/11/26 02:30:35;;;;;;;13.10;3.50;;;5.60;99.90;;;;;;5042412;28;20803;-70
2022/11/26 02:33:17;;;;;;;14.45;3.67;;;5.60;99.90;;;;;;5041409;28;20033;-70
2022/11/26 02:35:51;;;;;;;17.77;4.72;;;5.70;99.90;;;;;;5034511;28;21410;-68
2022/11/26 02:38:23;;;;;;;12.60;3.30;;;5.80;99.90;;;;;;5039137;28;20828;-69
2022/11/26 02:40:49;;;;;;;14.25;3.05;;;5.90;99.90;;;;;;5042994;28;20126;-69
2022/11/26 02:43:16;;;;;;;16.85;3.15;;;5.80;99.90;;;;;;5042685;28;20874;-68
2022/11/26 02:45:45;;;;;;;11.70;2.78;;;5.80;99.90;;;;;;5040735;28;20122;-68
2022/11/26 02:48:17;;;;;;;15.07;3.08;;;5.80;99.90;;;;;;5038886;28;20041;-69
2022/11/26 02:50:52;;;;;;;15.02;3.05;;;5.70;99.90;;;;;;5041038;28;20049;-68
2022/11/26 02:53:20;;;;;;;13.25;3.20;;;5.70;99.90;;;;;;5040447;28;20408;-67
2022/11/26 02:55:59;;;;;;;27.60;3.85;;;5.60;99.90;;;;;;5042014;28;20050;-69
2022/11/26 02:58:25;;;;;;;21.13;3.03;;;5.60;99.90;;;;;;5043174;28;20052;-69
2022/11/26 03:00:53;;;;;;;27.08;4.22;;;5.60;99.90;;;;;;5040321;28;20432;-69
2022/11/26 03:03:31;;;;;;;17.88;3.28;;;5.50;99.90;;;;;;5040847;28;20039;-68
2022/11/26 03:06:02;;;;;;;16.65;3.47;;;5.50;99.90;;;;;;5039139;28;20452;-68
2022/11/26 03:08:29;;;;;;;12.43;2.60;;;5.50;99.90;;;;;;5041432;28;20127;-68
2022/11/26 03:10:55;;;;;;;13.05;3.10;;;5.50;99.90;;;;;;5041410;28;20040;-69
2022/11/26 03:13:21;;;;;;;15.18;3.30;;;5.50;99.90;;;;;;5042373;28;20037;-70
2022/11/26 03:15:47;;;;;;;15.43;3.45;;;5.40;99.90;;;;;;5040470;28;20049;-69
2022/11/26 03:18:13;;;;;;;10.30;3.30;;;5.40;99.90;;;;;;5041760;28;20045;-69
2022/11/26 03:20:39;;;;;;;27.15;3.85;;;5.50;99.90;;;;;;5041047;28;20119;-70
2022/11/26 03:23:05;;;;;;;16.85;3.17;;;5.50;99.90;;;;;;5040174;28;20120;-69
2022/11/26 03:25:30;;;;;;;;;;;5.50;99.90;;;;;;5042161;28;20554;-70
2022/11/26 03:27:56;;;;;;;18.13;3.42;;;5.50;99.90;;;;;;5040071;28;19917;-68
2022/11/26 03:30:22;;;;;;;9.32;2.25;;;5.50;99.90;;;;;;5042336;28;20064;-69
2022/11/26 03:32:47;;;;;;;;;;;5.40;99.90;;;;;;5040673;28;20094;-68
2022/11/26 03:35:13;;;;;;;17.65;3.08;;;5.30;99.90;;;;;;5043528;28;20327;-68
2022/11/26 03:37:38;;;;;;;21.48;3.78;;;5.40;99.90;;;;;;5039806;28;20101;-68
2022/11/26 03:40:06;;;;;;;17.48;5.22;;;5.40;99.90;;;;;;5044355;28;20044;-69
2022/11/26 03:42:32;;;;;;;17.27;3.30;;;5.40;99.90;;;;;;5040189;28;20071;-68
2022/11/26 03:44:57;;;;;;;18.00;3.42;;;5.30;99.90;;;;;;5044179;28;20756;-69
2022/11/26 03:47:23;;;;;;;;;;;5.30;99.90;;;;;;5042119;28;20072;-68
2022/11/26 03:49:48;;;;;;;21.15;3.72;;;5.20;99.90;;;;;;5043252;28;19920;-69
2022/11/26 03:52:14;;;;;;;;;;;5.20;99.90;;;;;;5043306;28;20128;-69
2022/11/26 03:54:39;;;;;;;18.30;4.55;;;5.30;99.90;;;;;;5046633;28;20419;-70
2022/11/26 03:57:06;;;;;;;22.27;3.80;;;5.20;99.90;;;;;;5039688;28;20056;-69
2022/11/26 03:59:31;;;;;;;24.52;3.78;;;5.10;99.90;;;;;;5047440;28;20037;-68
2022/11/26 04:01:57;;;;;;;16.17;3.53;;;5.10;99.90;;;;;;5044940;28;20527;-68
2022/11/26 04:04:23;;;;;;;18.25;3.55;;;5.10;99.90;;;;;;5047005;28;20049;-68
2022/11/26 04:06:48;;;;;;;;;;;5.00;99.90;;;;;;5046166;28;20056;-69
2022/11/26 04:09:14;;;;;;;18.02;2.85;;;5.00;99.90;;;;;;5047964;28;19924;-68
2022/11/26 04:11:39;;;;;;;15.20;2.83;;;4.90;99.90;;;;;;5045998;28;20068;-70
2022/11/26 04:14:05;;;;;;;19.63;3.20;;;4.80;99.90;;;;;;5042934;28;20040;-68
2022/11/26 04:16:31;;;;;;;13.77;3.08;;;4.80;99.90;;;;;;5044685;28;20480;-68
2022/11/26 04:18:57;;;;;;;19.00;2.60;;;4.80;99.90;;;;;;5047452;28;20564;-68
2022/11/26 04:21:22;;;;;;;;;;;4.80;99.90;;;;;;5045478;28;20041;-69
2022/11/26 04:23:48;;;;;;;18.80;3.33;;;4.70;99.90;;;;;;5046526;28;19917;-69
2022/11/26 04:26:14;;;;;;;15.95;3.30;;;4.70;99.90;;;;;;5045189;28;20056;-69
2022/11/26 04:28:39;;;;;;;15.07;2.95;;;4.70;99.90;;;;;;5044340;28;20398;-67
2022/11/26 04:31:05;;;;;;;14.15;3.65;;;4.70;99.90;;;;;;5043138;28;20048;-69
2022/11/26 04:33:31;;;;;;;;;;;4.70;99.90;;;;;;5039644;28;20048;-69
2022/11/26 04:35:56;;;;;;;17.75;3.25;;;4.70;99.90;;;;;;5055294;28;20483;-68
2022/11/26 04:38:22;;;;;;;20.13;3.67;;;4.80;99.90;;;;;;5045641;28;20095;-69
2022/11/26 04:40:48;;;;;;;15.85;3.28;;;4.70;99.90;;;;;;5044463;28;20092;-69
2022/11/26 04:43:14;;;;;;;19.60;3.17;;;4.80;99.90;;;;;;5044897;28;20086;-68
2022/11/26 04:45:39;;;;;;;20.50;3.53;;;4.80;99.90;;;;;;5043918;28;20132;-68
2022/11/26 04:48:05;;;;;;;24.20;4.55;;;4.80;99.90;;;;;;5046014;28;20037;-69
2022/11/26 04:50:31;;;;;;;21.20;3.97;;;4.90;99.90;;;;;;5043896;28;20374;-69
2022/11/26 04:52:57;;;;;;;16.80;3.08;;;4.90;99.90;;;;;;5043009;28;20044;-69
2022/11/26 04:55:22;;;;;;;13.82;3.00;;;4.90;99.90;;;;;;5045199;28;20037;-69
2022/11/26 04:57:48;;;;;;;24.25;3.47;;;4.90;99.90;;;;;;5043882;28;20043;-69
2022/11/26 05:00:14;;;;;;;;;;;4.90;99.90;;;;;;5046521;28;20118;-67
2022/11/26 05:02:40;;;;;;;13.65;3.55;;;4.90;99.90;;;;;;5041059;28;20019;-68
2022/11/26 05:05:06;;;;;;;19.05;3.67;;;4.90;99.90;;;;;;5045068;28;20544;-69
2022/11/26 05:07:32;;;;;;;18.33;3.65;;;4.90;99.90;;;;;;5041184;28;20041;-68
2022/11/26 05:09:58;;;;;;;20.05;4.18;;;5.00;99.90;;;;;;5045952;28;20500;-69
2022/11/26 05:12:23;;;;;;;19.23;5.18;;;5.10;99.90;;;;;;5040589;28;20052;-68
2022/11/26 05:14:49;;;;;;;;;;;5.10;99.90;;;;;;5047658;28;20123;-69
2022/11/26 05:17:15;;;;;;;17.10;3.35;;;5.00;99.90;;;;;;5038837;28;20355;-68
2022/11/26 05:19:40;;;;;;;11.90;3.53;;;5.10;99.90;;;;;;5046257;28;20525;-68
2022/11/26 05:22:06;;;;;;;;;;;5.10;99.90;;;;;;5041411;28;20033;-68
2022/11/26 05:24:31;;;;;;;19.33;3.35;;;5.10;99.90;;;;;;5044416;28;19920;-69
2022/11/26 05:26:57;;;;;;;19.73;3.38;;;5.10;99.90;;;;;;5040488;28;20053;-68
2022/11/26 05:29:23;;;;;;;;;;;5.10;99.90;;;;;;5046293;28;20131;-70
2022/11/26 05:31:48;;;;;;;12.98;3.22;;;5.10;99.90;;;;;;5036935;28;20373;-69
2022/11/26 05:34:14;;;;;;;15.02;3.13;;;5.10;99.90;;;;;;5041957;28;20036;-69
2022/11/26 05:36:39;;;;;;;15.27;3.28;;;5.10;99.90;;;;;;5040655;28;20123;-69
2022/11/26 05:39:05;;;;;;;20.60;3.25;;;5.00;99.90;;;;;;5045875;28;20108;-68
2022/11/26 05:41:31;;;;;;;;;;;5.00;99.90;;;;;;5042317;28;20048;-68
2022/11/26 05:43:56;;;;;;;19.95;3.67;;;5.00;99.90;;;;;;5045226;28;19917;-70
2022/11/26 05:46:22;;;;;;;21.77;5.07;;;5.00;99.90;;;;;;5042986;28;20037;-69
2022/11/26 05:48:48;;;;;;;24.20;3.60;;;5.10;99.90;;;;;;5042341;28;20132;-69
2022/11/26 05:51:13;;;;;;;22.20;4.55;;;5.00;99.90;;;;;;5044005;28;20059;-68
2022/11/26 05:53:39;;;;;;;14.45;3.58;;;5.00;99.90;;;;;;5041115;28;20056;-69
2022/11/26 05:56:05;;;;;;;11.90;4.03;;;5.10;99.90;;;;;;5043506;28;20107;-67
2022/11/26 05:58:31;;;;;;;28.52;4.50;;;5.20;99.90;;;;;;5043586;28;20083;-65
2022/11/26 06:00:57;;;;;;;18.23;3.63;;;5.30;99.90;;;;;;5040144;28;20057;-65
2022/11/26 06:03:23;;;;;;;13.35;3.90;;;5.30;99.90;;;;;;5037716;28;20067;-66
2022/11/26 06:05:48;;;;;;;17.35;4.43;;;5.40;99.90;;;;;;5041450;28;21085;-65
2022/11/26 06:08:14;;;;;;;21.27;3.90;;;5.30;99.90;;;;;;5042167;28;20708;-64
2022/11/26 06:10:43;;;;;;;30.65;5.20;;;5.30;99.90;;;;;;5041339;28;20071;-65
2022/11/26 06:13:09;;;;;;;19.50;4.75;;;5.30;99.90;;;;;;5042705;28;20040;-65
2022/11/26 06:15:34;;;;;;;22.67;4.57;;;5.40;99.90;;;;;;5042869;28;20044;-65
2022/11/26 06:18:00;;;;;;;19.77;4.38;;;5.40;99.90;;;;;;5041578;28;20041;-65
2022/11/26 06:20:26;;;;;;;16.55;4.47;;;5.30;99.90;;;;;;5044055;28;20424;-64
2022/11/26 06:22:51;;;;;;;12.80;4.50;;;5.30;99.90;;;;;;5043685;28;20416;-64
2022/11/26 06:25:17;;;;;;;17.23;4.50;;;5.30;99.90;;;;;;5042452;28;20044;-64
2022/11/26 06:27:42;;;;;;;;;;;5.30;99.90;;;;;;5040273;28;20048;-67
2022/11/26 06:30:10;;;;;;;25.58;5.57;;;5.30;99.90;;;;;;5044147;28;20007;-69
2022/11/26 06:32:36;;;;;;;23.58;5.20;;;5.30;99.90;;;;;;5035999;28;20048;-67
2022/11/26 06:35:02;;;;;;;15.60;5.05;;;5.20;99.90;;;;;;5042970;28;20060;-68
2022/11/26 06:37:28;;;;;;;22.33;5.95;;;5.20;99.90;;;;;;5039111;28;20555;-67
2022/11/26 06:39:54;;;;;;;34.03;6.82;;;5.20;99.90;;;;;;5044120;28;20507;-68
2022/11/26 06:42:19;;;;;;;34.58;5.57;;;5.20;99.90;;;;;;5037787;28;20039;-68
2022/11/26 06:44:45;;;;;;;14.32;4.70;;;5.20;99.90;;;;;;5045562;28;20443;-68
2022/11/26 06:47:12;;;;;;;18.30;5.10;;;5.10;99.90;;;;;;5041255;28;20496;-68
2022/11/26 06:49:39;;;;;;;18.95;6.40;;;5.10;99.90;;;;;;5042856;28;20048;-67
2022/11/26 06:52:05;;;;;;;18.35;5.25;;;5.10;99.90;;;;;;5041172;28;20057;-69
2022/11/26 06:54:31;;;;;;;16.33;4.88;;;5.10;99.90;;;;;;5040586;28;20114;-68
2022/11/26 06:56:56;;;;;;;23.73;5.28;;;5.20;99.90;;;;;;5040312;28;20098;-69
2022/11/26 06:59:22;;;;;;;;;;;5.10;99.90;;;;;;5043575;28;20033;-67
2022/11/26 07:01:48;;;;;;;19.55;4.68;;;5.20;99.90;;;;;;5039101;28;19929;-69
2022/11/26 07:04:13;;;;;;;13.43;4.43;;;5.20;99.90;;;;;;5037926;28;20122;-64
2022/11/26 07:06:39;;;;;;;21.20;5.57;;;5.20;99.90;;;;;;5038675;28;21080;-66
2022/11/26 07:09:08;;;;;;;17.92;4.75;;;5.30;99.90;;;;;;5037264;28;20090;-70
2022/11/26 07:11:35;;;;;;;19.17;5.15;;;5.30;99.90;;;;;;5040693;28;20048;-66
2022/11/26 07:14:01;;;;;;;22.17;4.90;;;5.30;99.90;;;;;;5043923;28;20040;-63
2022/11/26 07:16:27;;;;;;;18.35;5.30;;;5.40;99.90;;;;;;5040755;28;20424;-66
2022/11/26 07:18:55;;;;;;;17.48;6.22;;;5.40;99.90;;;;;;5042184;28;20586;-69
2022/11/26 07:21:21;;;;;;;15.23;4.47;;;5.40;99.90;;;;;;5041076;28;20037;-67
2022/11/26 07:23:47;;;;;;;19.52;6.05;;;5.30;99.90;;;;;;5041050;28;20036;-67
2022/11/26 07:26:14;;;;;;;14.52;4.93;;;5.30;99.90;;;;;;5042321;28;20048;-68
2022/11/26 07:28:40;;;;;;;22.30;5.05;;;5.30;99.90;;;;;;5043143;28;20087;-68
2022/11/26 07:31:11;;;;;;;17.10;4.72;;;5.30;99.90;;;;;;5038268;28;20064;-67
2022/11/26 07:33:37;;;;;;;14.90;4.38;;;5.20;99.90;;;;;;5044385;28;20500;-66
2022/11/26 07:36:06;;;;;;;12.63;4.15;;;5.20;99.90;;;;;;5047442;28;20047;-66
2022/11/26 07:38:33;;;;;;;17.17;4.43;;;5.20;99.90;;;;;;5041722;28;20052;-67
2022/11/26 07:41:04;;;;;;;20.45;4.78;;;5.10;99.90;;;;;;5043028;28;20037;-67
2022/11/26 07:43:29;;;;;;;17.17;5.10;;;5.10;99.90;;;;;;5045236;28;20102;-67
2022/11/26 07:45:55;;;;;;;13.93;4.63;;;5.10;99.90;;;;;;5044404;28;20052;-67
2022/11/26 07:48:21;;;;;;;18.50;5.00;;;5.20;99.90;;;;;;5043250;28;20083;-67
2022/11/26 07:50:46;;;;;;;;;;;5.10;99.90;;;;;;5043505;28;20084;-68
2022/11/26 07:53:13;;;;;;;14.40;4.15;;;5.10;99.90;;;;;;5043216;28;20478;-67
2022/11/26 07:55:39;;;;;;;12.60;4.25;;;5.10;99.90;;;;;;5044676;28;20036;-67
2022/11/26 07:58:05;;;;;;;15.68;4.88;;;5.00;99.90;;;;;;5044090;28;20102;-66
2022/11/26 08:00:30;;;;;;;16.27;4.32;;;5.10;99.90;;;;;;5043965;28;20423;-67
2022/11/26 08:02:56;;;;;;;18.52;4.25;;;5.10;99.90;;;;;;5046878;28;20126;-66
2022/11/26 08:05:22;;;;;;;16.38;4.18;;;5.10;99.90;;;;;;5045580;28;20128;-67
2022/11/26 08:07:47;;;;;;;17.75;4.38;;;5.10;99.90;;;;;;5043875;28;20083;-65
2022/11/26 08:10:13;;;;;;;23.73;5.10;;;5.20;99.90;;;;;;5046350;28;20123;-67
2022/11/26 08:12:39;;;;;;;21.05;5.28;;;5.20;99.90;;;;;;5043949;28;20037;-65
2022/11/26 08:15:05;;;;;;;23.27;4.85;;;5.30;99.90;;;;;;5046176;28;20040;-65
2022/11/26 08:17:30;;;;;;;12.40;3.97;;;5.40;99.90;;;;;;5043338;28;20184;-65
2022/11/26 08:19:56;;;;;;;25.33;4.75;;;5.40;99.90;;;;;;5043262;28;20619;-71
2022/11/26 08:22:22;;;;;;;;;;;5.50;99.90;;;;;;5039883;28;20044;-65
2022/11/26 08:24:49;;;;;;;12.82;3.92;;;5.60;99.90;;;;;;5045586;28;19920;-66
2022/11/26 08:27:14;;;;;;;22.27;4.78;;;5.60;99.90;;;;;;5041948;28;20572;-68
2022/11/26 08:29:40;;;;;;;19.77;4.22;;;5.70;99.90;;;;;;5045573;28;20033;-66
2022/11/26 08:32:06;;;;;;;14.18;3.83;;;5.80;99.90;;;;;;5042952;28;20102;-66
2022/11/26 08:34:32;;;;;;;13.93;4.40;;;5.90;99.90;;;;;;5044875;28;20086;-66
2022/11/26 08:36:58;;;;;;;21.23;3.90;;;5.90;99.90;;;;;;5043694;28;20421;-65
2022/11/26 08:39:23;;;;;;;13.75;3.40;;;5.90;99.90;;;;;;5043525;28;20052;-65
2022/11/26 08:41:49;;;;;;;19.58;4.47;;;5.90;99.90;;;;;;5043292;28;20044;-65
2022/11/26 08:44:15;;;;;;;15.20;4.40;;;5.90;99.90;;;;;;5044910;28;20061;-66
2022/11/26 08:46:41;;;;;;;15.40;4.40;;;5.80;99.90;;;;;;5041244;28;20044;-65
2022/11/26 08:49:11;;;;;;;20.20;4.88;;;5.70;99.90;;;;;;5042613;28;20411;-66
2022/11/26 08:51:37;;;;;;;23.52;5.00;;;5.70;99.90;;;;;;5041548;28;20036;-65
2022/11/26 08:54:03;;;;;;;16.80;4.82;;;5.60;99.90;;;;;;5042737;28;20361;-66
2022/11/26 08:56:29;;;;;;;13.43;4.35;;;5.60;99.90;;;;;;5043018;28;20032;-66
2022/11/26 08:58:55;;;;;;;24.70;5.10;;;5.50;99.90;;;;;;5040314;28;20032;-66
2022/11/26 09:01:24;;;;;;;16.77;5.05;;;5.50;99.90;;;;;;5043159;28;20033;-66
2022/11/26 09:03:50;;;;;;;23.33;5.22;;;5.50;99.90;;;;;;5044546;28;20033;-66
2022/11/26 09:06:17;;;;;;;27.55;5.28;;;5.50;99.90;;;;;;5042834;28;20051;-67
2022/11/26 09:11:28;;;;;;;18.00;4.88;;;5.60;99.90;;;;;;5044065;28;20041;-66
2022/11/26 09:13:54;;;;;;;20.67;4.50;;;5.80;99.90;;;;;;5047062;28;20592;-66
2022/11/26 09:16:21;;;;;;;15.48;4.25;;;5.90;99.90;;;;;;5037080;28;20511;-65
2022/11/26 09:18:46;;;;;;;15.40;4.80;;;6.00;99.90;;;;;;5044375;28;20551;-64
2022/11/26 09:21:12;;;;;;;21.38;3.83;;;6.10;99.90;;;;;;5042885;28;20037;-66
2022/11/26 09:23:38;;;;;;;;;;;6.10;99.90;;;;;;5044083;28;20037;-67
2022/11/26 09:26:03;;;;;;;18.20;4.38;;;6.10;99.90;;;;;;5042916;28;19920;-66
2022/11/26 09:28:29;;;;;;;17.88;4.10;;;6.20;99.90;;;;;;5043857;28;20044;-66
2022/11/26 09:30:58;;;;;;;;;;;6.30;99.90;;;;;;5042231;28;20041;-66
2022/11/26 09:33:24;;;;;;;17.95;4.60;;;6.50;99.90;;;;;;5039406;28;19929;-67
2022/11/26 09:35:50;;;;;;;16.45;3.42;;;6.60;99.90;;;;;;5044334;28;20796;-67
2022/11/26 09:38:15;;;;;;;;;;;6.80;99.90;;;;;;5043970;28;20033;-67
2022/11/26 09:40:44;;;;;;;25.42;4.85;;;6.80;99.90;;;;;;5043370;28;19952;-67
2022/11/26 09:43:55;;;;;;;16.85;5.55;;;6.80;99.90;;;;;;5044157;28;20059;-67
2022/11/26 09:46:43;;;;;;;17.17;4.55;;;6.80;99.90;;;;;;5035932;28;20056;-64
2022/11/26 09:49:13;;;;;;;22.10;5.60;;;6.60;99.90;;;;;;5052341;28;20384;-66
2022/11/26 09:51:42;;;;;;;17.40;5.45;;;6.50;99.90;;;;;;5040103;28;20041;-67
2022/11/26 09:54:17;;;;;;;13.23;4.70;;;6.40;99.90;;;;;;5042012;28;20045;-66
2022/11/26 09:56:43;;;;;;;30.42;5.95;;;6.40;99.90;;;;;;5038614;28;20047;-67
2022/11/26 09:59:13;;;;;;;19.27;6.03;;;6.30;99.90;;;;;;5044508;28;20041;-65
2022/11/26 10:01:40;;;;;;;14.85;5.38;;;6.40;99.90;;;;;;5039262;28;20065;-65
2022/11/26 10:04:13;;;;;;;21.13;6.70;;;6.60;99.90;;;;;;5044255;28;20175;-67
2022/11/26 10:07:13;;;;;;;16.40;5.30;;;6.80;99.90;;;;;;5038911;28;20099;-66
2022/11/26 10:09:54;;;;;;;21.38;5.07;;;7.00;99.90;;;;;;5042122;28;20053;-67
2022/11/26 10:12:38;;;;;;;12.63;5.38;;;7.00;99.90;;;;;;5037647;28;20046;-66
2022/11/26 10:15:26;;;;;;;21.92;5.22;;;7.20;99.90;;;;;;5043968;28;20085;-65
2022/11/26 10:18:04;;;;;;;18.10;4.57;;;7.30;99.90;;;;;;5040768;28;20047;-67
2022/11/26 10:20:49;;;;;;;11.20;4.63;;;7.40;99.90;;;;;;5041900;28;20098;-66
2022/11/26 10:23:26;;;;;;;14.27;4.93;;;7.40;99.90;;;;;;5040230;28;20045;-66
2022/11/26 10:26:00;;;;;;;10.35;4.40;;;7.40;99.90;;;;;;5042447;28;20045;-67
2022/11/26 10:28:32;;;;;;;16.50;4.80;;;7.60;99.90;;;;;;5041019;28;20045;-66
2022/11/26 10:31:01;;;;;;;16.65;4.75;;;7.70;99.90;;;;;;5047109;28;20032;-66
2022/11/26 10:33:52;;;;;;;13.05;4.57;;;7.80;99.90;;;;;;5046043;28;20051;-68
2022/11/26 10:36:35;;;;;;;13.90;4.30;;;7.90;99.90;;;;;;5042160;28;20056;-66
2022/11/26 10:39:02;;;;;;;15.13;4.32;;;8.00;99.90;;;;;;5044471;28;20033;-67
2022/11/26 10:41:32;;;;;;;11.75;4.40;;;8.00;99.90;;;;;;5050307;28;20047;-66
2022/11/26 10:44:26;;;;;;;13.35;4.60;;;8.10;99.90;;;;;;5044603;28;20558;-66
2022/11/26 10:46:52;;;;;;;16.98;4.50;;;8.20;99.90;;;;;;5049279;28;20493;-66
2022/11/26 10:49:21;;;;;;;;;;;8.20;99.90;;;;;;5046968;28;20036;-67
2022/11/26 10:51:48;;;;;;;13.50;4.10;;;8.30;99.90;;;;;;5049499;28;20319;-66
2022/11/26 10:54:40;;;;;;;13.70;4.63;;;8.30;99.90;;;;;;5042567;28;20041;-67
2022/11/26 10:57:09;;;;;;;13.00;4.57;;;8.30;99.90;;;;;;5042153;28;20059;-65
2022/11/26 10:59:50;;;;;;;12.75;3.55;;;8.30;99.90;;;;;;5046787;28;20037;-66
2022/11/26 11:02:19;;;;;;;12.35;3.45;;;8.30;99.90;;;;;;5047860;28;20067;-65
2022/11/26 11:04:47;;;;;;;9.48;3.55;;;8.20;99.90;;;;;;5046354;28;20037;-67
2022/11/26 11:07:32;;;;;;;11.25;4.07;;;8.20;99.90;;;;;;5048905;28;20049;-65
2022/11/26 11:10:12;;;;;;;20.90;4.60;;;8.00;99.90;;;;;;5042674;28;20178;-66
2022/11/26 11:12:42;;;;;;;12.02;5.07;;;7.90;99.90;;;;;;5052379;28;20041;-67
2022/11/26 11:15:17;;;;;;;14.13;4.78;;;7.90;99.90;;;;;;5038236;28;20076;-65
2022/11/26 11:17:43;;;;;;;14.30;5.55;;;8.00;99.90;;;;;;5045395;28;20428;-65
2022/11/26 11:20:14;;;;;;;15.25;4.72;;;8.00;99.90;;;;;;5044694;28;20072;-68
2022/11/26 11:22:45;;;;;;;20.50;6.22;;;8.00;99.90;;;;;;5057703;28;20052;-67
2022/11/26 11:25:23;;;;;;;11.52;5.47;;;7.90;99.90;;;;;;5045562;28;20079;-68
2022/11/26 11:27:49;;;;;;;16.27;5.85;;;7.90;99.90;;;;;;5052920;28;20458;-68
2022/11/26 11:30:31;;;;;;;18.70;5.93;;;7.90;99.90;;;;;;5043297;28;20117;-69
2022/11/26 11:33:10;;;;;;;17.00;6.53;;;8.00;99.90;;;;;;5047982;28;20041;-67
2022/11/26 11:35:36;;;;;;;11.52;5.22;;;7.90;99.90;;;;;;5046357;28;20064;-67
2022/11/26 11:38:02;;;;;;;;;;;8.00;99.90;;;;;;5048164;28;20064;-67
2022/11/26 11:40:29;;;;;;;21.50;6.15;;;8.00;99.90;;;;;;5046863;28;20027;-68
2022/11/26 11:43:04;;;;;;;12.23;5.30;;;8.00;99.90;;;;;;5050331;28;20044;-69
2022/11/26 11:45:48;;;;;;;20.00;5.80;;;8.00;99.90;;;;;;5045031;28;20051;-69
2022/11/26 11:48:37;;;;;;;16.48;5.03;;;8.00;99.90;;;;;;5046536;28;20037;-69
2022/11/26 11:51:16;;;;;;;21.30;5.30;;;8.10;99.90;;;;;;5045632;28;20040;-69
2022/11/26 11:54:02;;;;;;;19.02;5.35;;;8.20;99.90;;;;;;5043268;28;20120;-69
2022/11/26 11:56:40;;;;;;;21.13;4.97;;;8.20;99.90;;;;;;5037110;28;20049;-68
2022/11/26 11:59:57;;;;;;;17.50;5.30;;;8.20;99.90;;;;;;5046818;28;20299;-68
2022/11/26 12:02:38;;;;;;;15.13;4.93;;;8.20;99.90;;;;;;5047399;28;20459;-68
2022/11/26 12:05:44;;;;;;;19.02;4.07;;;8.20;99.90;;;;;;5043689;28;20041;-68
2022/11/26 12:09:06;;;;;;;11.27;3.83;;;8.20;99.90;;;;;;5049135;28;20511;-68
2022/11/26 12:11:55;;;;;;;15.40;3.80;;;8.20;99.90;;;;;;5041199;28;20044;-68
2022/11/26 12:14:28;;;;;;;11.55;4.07;;;8.10;99.90;;;;;;5048364;28;20108;-68
2022/11/26 12:17:18;;;;;;;11.75;4.07;;;8.10;99.90;;;;;;5054179;28;20073;-68
2022/11/26 12:19:51;;;;;;;13.57;4.65;;;8.00;99.90;;;;;;5049723;28;20079;-69
2022/11/26 12:22:28;;;;;;;15.60;4.30;;;8.10;99.90;;;;;;5052282;28;20044;-70
2022/11/26 12:25:16;;;;;;;15.02;4.45;;;8.00;99.90;;;;;;5046091;28;20048;-68
2022/11/26 12:27:54;;;;;;;9.10;3.92;;;8.00;99.90;;;;;;5055832;28;20059;-70
2022/11/26 12:30:22;;;;;;;11.70;4.18;;;8.00;99.90;;;;;;5047049;28;20044;-69
2022/11/26 12:32:56;;;;;;;20.60;5.68;;;8.00;99.90;;;;;;5047534;28;20041;-69
2022/11/26 12:35:29;;;;;;;17.10;5.28;;;8.00;99.90;;;;;;5043367;28;20045;-70
2022/11/26 12:38:33;;;;;;;15.75;5.53;;;8.00;99.90;;;;;;5050711;28;20041;-69
2022/11/26 12:41:09;;;;;;;13.85;4.10;;;8.00;99.90;;;;;;5050060;28;20064;-68
2022/11/26 12:43:54;;;;;;;;;;;8.00;99.90;;;;;;5050994;28;20072;-68
2022/11/26 12:46:42;;;;;;;15.13;4.13;;;8.10;99.90;;;;;;5044155;28;19920;-69
2022/11/26 12:49:23;;;;;;;17.77;4.93;;;8.10;99.90;;;;;;5040186;28;20068;-70
2022/11/26 12:51:55;;;;;;;15.00;4.30;;;8.20;99.90;;;;;;5050562;28;20049;-70
2022/11/26 12:54:53;;;;;;;13.02;5.22;;;8.30;99.90;;;;;;5047697;28;20429;-68
2022/11/26 12:57:31;;;;;;;12.05;4.15;;;8.20;99.90;;;;;;5040292;28;20052;-69
2022/11/26 13:00:20;;;;;;;16.95;4.53;;;8.20;99.90;;;;;;5042787;28;20045;-68
2022/11/26 13:02:49;;;;;;;16.23;4.65;;;8.20;99.90;;;;;;5053132;28;20147;-68
2022/11/26 13:05:25;;;;;;;15.43;4.97;;;8.10;99.90;;;;;;5046305;28;20047;-70
2022/11/26 13:08:05;;;;;;;15.77;4.85;;;8.20;99.90;;;;;;5050841;28;20411;-68
2022/11/26 13:10:49;;;;;;;16.45;4.70;;;8.10;99.90;;;;;;5048288;28;20045;-68
2022/11/26 13:13:23;;;;;;;19.52;5.10;;;8.00;99.90;;;;;;5052230;28;20404;-68
2022/11/26 13:16:03;;;;;;;17.85;4.30;;;8.00;99.90;;;;;;5048366;28;20036;-68